createdAt,value
2023-04-19T00:00:58.152Z,11.5252
2023-04-19T00:01:59.624Z,11.5303
2023-04-19T00:03:01.332Z,11.5356
2023-04-19T00:04:03.060Z,11.5403
2023-04-19T00:05:05.351Z,11.5446
2023-04-19T00:06:07.097Z,11.5514
2023-04-19T00:07:08.478Z,11.5577
2023-04-19T00:08:09.938Z,11.5623
2023-04-19T00:09:11.304Z,11.5669
2023-04-19T00:10:12.701Z,11.5707
2023-04-19T00:11:14.092Z,11.5729
2023-04-19T00:12:15.476Z,11.5758
2023-04-19T00:13:16.875Z,11.5772
2023-04-19T00:14:18.389Z,11.5789
2023-04-19T00:15:19.918Z,11.5840
2023-04-19T00:16:21.389Z,11.5916
2023-04-19T00:17:22.842Z,11.5958
2023-04-19T00:18:24.329Z,11.5979
2023-04-19T00:19:25.749Z,11.5971
2023-04-19T00:20:27.408Z,11.5986
2023-04-19T00:21:29.080Z,11.6006
2023-04-19T00:22:30.526Z,11.6027
2023-04-19T00:23:31.997Z,11.6060
2023-04-19T00:24:33.436Z,11.6071
2023-04-19T00:25:34.890Z,11.6069
2023-04-19T00:26:36.282Z,11.6081
2023-04-19T00:27:37.638Z,11.6108
2023-04-19T00:28:39.034Z,11.6125
2023-04-19T00:29:40.422Z,11.6141
2023-04-19T00:30:41.855Z,11.6147
2023-04-19T00:31:43.255Z,11.6162
2023-04-19T00:32:44.674Z,11.6167
2023-04-19T00:33:46.027Z,11.6143
2023-04-19T00:34:47.414Z,11.6118
2023-04-19T00:35:48.753Z,11.6107
2023-04-19T00:36:50.144Z,11.6096
2023-04-19T00:37:51.548Z,11.6078
2023-04-19T00:38:52.959Z,11.6067
2023-04-19T00:39:54.344Z,11.6063
2023-04-19T00:40:55.730Z,11.6055
2023-04-19T00:41:57.072Z,11.6049
2023-04-19T00:42:58.478Z,11.6040
2023-04-19T00:43:59.841Z,11.6042
2023-04-19T00:45:01.409Z,11.6067
2023-04-19T00:46:02.838Z,11.6084
2023-04-19T00:47:04.226Z,11.6082
2023-04-19T00:48:05.865Z,11.6086
2023-04-19T00:49:07.213Z,11.6093
2023-04-19T00:50:08.610Z,11.6101
2023-04-19T00:51:09.983Z,11.6096
2023-04-19T00:52:11.400Z,11.6089
2023-04-19T00:53:12.801Z,11.6089
2023-04-19T00:54:14.443Z,11.6100
2023-04-19T00:55:16.298Z,11.6090
2023-04-19T00:56:17.697Z,11.6075
2023-04-19T00:57:19.060Z,11.6074
2023-04-19T00:58:20.412Z,11.6062
2023-04-19T00:59:21.756Z,11.6036
2023-04-19T01:00:23.145Z,11.5979
2023-04-19T01:01:24.510Z,11.5956
2023-04-19T01:02:25.930Z,11.5940
2023-04-19T01:03:27.889Z,11.5947
2023-04-19T01:04:29.734Z,11.5952
2023-04-19T01:05:31.153Z,11.5964
2023-04-19T01:06:32.508Z,11.5989
2023-04-19T01:07:33.944Z,11.5963
2023-04-19T01:08:35.309Z,11.5936
2023-04-19T01:09:36.708Z,11.5960
2023-04-19T01:10:38.045Z,11.5995
2023-04-19T01:11:40.782Z,11.6024
2023-04-19T01:12:41.436Z,11.6026
2023-04-19T01:13:42.803Z,11.6048
2023-04-19T01:14:44.202Z,11.6080
2023-04-19T01:15:45.620Z,11.6077
2023-04-19T01:16:46.995Z,11.6052
2023-04-19T01:17:48.399Z,11.6041
2023-04-19T01:18:49.808Z,11.6004
2023-04-19T01:19:51.202Z,11.5983
2023-04-19T01:20:52.589Z,11.5966
2023-04-19T01:21:54.038Z,11.5944
2023-04-19T01:22:55.393Z,11.5923
2023-04-19T01:23:56.973Z,11.5899
2023-04-19T01:24:58.365Z,11.5872
2023-04-19T01:25:59.885Z,11.5833
2023-04-19T01:27:01.317Z,11.5816
2023-04-19T01:28:02.814Z,11.5796
2023-04-19T01:29:04.230Z,11.5756
2023-04-19T01:30:05.573Z,11.5725
2023-04-19T01:31:06.960Z,11.5691
2023-04-19T01:32:08.277Z,11.5643
2023-04-19T01:33:09.618Z,11.5584
2023-04-19T01:34:10.983Z,11.5539
2023-04-19T01:35:12.328Z,11.5495
2023-04-19T01:36:13.673Z,11.5469
2023-04-19T01:37:15.010Z,11.5440
2023-04-19T01:38:16.497Z,11.5423
2023-04-19T01:39:18.870Z,11.5421
2023-04-19T01:40:20.301Z,11.5377
2023-04-19T01:41:21.643Z,11.5298
2023-04-19T01:42:23.101Z,11.5223
2023-04-19T01:43:24.522Z,11.5168
2023-04-19T01:44:25.913Z,11.5115
2023-04-19T01:45:27.315Z,11.5090
2023-04-19T01:46:28.888Z,11.5073
2023-04-19T01:47:30.308Z,11.5034
2023-04-19T01:48:31.758Z,11.5004
2023-04-19T01:49:33.146Z,11.4990
2023-04-19T01:50:34.591Z,11.4960
2023-04-19T01:51:36.013Z,11.4900
2023-04-19T01:52:37.485Z,11.4841
2023-04-19T01:53:38.920Z,11.4802
2023-04-19T01:54:40.287Z,11.4776
2023-04-19T01:55:41.742Z,11.4744
2023-04-19T01:56:43.209Z,11.4670
2023-04-19T01:57:44.609Z,11.4621
2023-04-19T01:58:46.057Z,11.4523
2023-04-19T01:59:47.430Z,11.4449
2023-04-19T02:00:48.919Z,11.4380
2023-04-19T02:01:50.348Z,11.4330
2023-04-19T02:02:51.989Z,11.4263
2023-04-19T02:03:53.598Z,11.4212
2023-04-19T02:04:55.526Z,11.4167
2023-04-19T02:05:56.963Z,11.4099
2023-04-19T02:06:58.431Z,11.4056
2023-04-19T02:07:59.876Z,11.4019
2023-04-19T02:09:01.258Z,11.3972
2023-04-19T02:10:02.773Z,11.3924
2023-04-19T02:11:04.221Z,11.3872
2023-04-19T02:12:05.623Z,11.3822
2023-04-19T02:13:07.139Z,11.3783
2023-04-19T02:14:08.542Z,11.3749
2023-04-19T02:15:09.969Z,11.3717
2023-04-19T02:16:11.550Z,11.3711
2023-04-19T02:17:13.037Z,11.3734
2023-04-19T02:18:14.423Z,11.3764
2023-04-19T02:19:15.875Z,11.3789
2023-04-19T02:20:17.299Z,11.3804
2023-04-19T02:21:18.724Z,11.3831
2023-04-19T02:22:20.147Z,11.3860
2023-04-19T02:23:21.608Z,11.3870
2023-04-19T02:24:23.014Z,11.3880
2023-04-19T02:25:24.467Z,11.3893
2023-04-19T02:26:26.030Z,11.3926
2023-04-19T02:27:27.489Z,11.3975
2023-04-19T02:28:28.888Z,11.3998
2023-04-19T02:29:30.382Z,11.4049
2023-04-19T02:30:31.858Z,11.4095
2023-04-19T02:31:33.300Z,11.4125
2023-04-19T02:32:34.790Z,11.4163
2023-04-19T02:33:36.127Z,11.4208
2023-04-19T02:34:37.599Z,11.4220
2023-04-19T02:35:38.966Z,11.4242
2023-04-19T02:36:40.347Z,11.4261
2023-04-19T02:37:41.829Z,11.4298
2023-04-19T02:38:43.190Z,11.4305
2023-04-19T02:39:44.595Z,11.4302
2023-04-19T02:40:46.035Z,11.4293
2023-04-19T02:41:47.558Z,11.4280
2023-04-19T02:42:48.963Z,11.4301
2023-04-19T02:43:50.411Z,11.4315
2023-04-19T02:44:51.995Z,11.4321
2023-04-19T02:45:53.476Z,11.4338
2023-04-19T02:46:54.893Z,11.4363
2023-04-19T02:47:56.369Z,11.4384
2023-04-19T02:48:57.939Z,11.4426
2023-04-19T02:49:59.328Z,11.4461
2023-04-19T02:51:00.773Z,11.4518
2023-04-19T02:52:02.241Z,11.4587
2023-04-19T02:53:03.785Z,11.4633
2023-04-19T02:54:05.273Z,11.4638
2023-04-19T02:55:06.659Z,11.4615
2023-04-19T02:56:08.073Z,11.4628
2023-04-19T02:57:09.526Z,11.4634
2023-04-19T02:58:10.921Z,11.4653
2023-04-19T02:59:12.370Z,11.4667
2023-04-19T03:00:13.861Z,11.4672
2023-04-19T03:01:15.643Z,11.4663
2023-04-19T03:02:17.118Z,11.4669
2023-04-19T03:03:18.593Z,11.4663
2023-04-19T03:04:19.998Z,11.4679
2023-04-19T03:05:21.445Z,11.4706
2023-04-19T03:06:22.858Z,11.4730
2023-04-19T03:07:24.378Z,11.4737
2023-04-19T03:08:25.799Z,11.4744
2023-04-19T03:09:27.227Z,11.4738
2023-04-19T03:10:28.685Z,11.4742
2023-04-19T03:11:30.091Z,11.4728
2023-04-19T03:12:31.473Z,11.4727
2023-04-19T03:13:32.968Z,11.4743
2023-04-19T03:14:34.362Z,11.4760
2023-04-19T03:15:35.815Z,11.4775
2023-04-19T03:16:37.252Z,11.4790
2023-04-19T03:17:38.697Z,11.4784
2023-04-19T03:18:40.131Z,11.4770
2023-04-19T03:19:41.609Z,11.4742
2023-04-19T03:20:43.058Z,11.4714
2023-04-19T03:21:44.519Z,11.4713
2023-04-19T03:22:45.982Z,11.4723
2023-04-19T03:23:47.380Z,11.4741
2023-04-19T03:24:48.787Z,11.4740
2023-04-19T03:25:50.250Z,11.4723
2023-04-19T03:26:51.725Z,11.4679
2023-04-19T03:27:53.155Z,11.4583
2023-04-19T03:28:54.660Z,11.4497
2023-04-19T03:29:56.179Z,11.4415
2023-04-19T03:30:57.676Z,11.4347
2023-04-19T03:31:59.113Z,11.4299
2023-04-19T03:33:00.520Z,11.4287
2023-04-19T03:34:01.940Z,11.4292
2023-04-19T03:35:03.348Z,11.4292
2023-04-19T03:36:04.797Z,11.4289
2023-04-19T03:37:06.190Z,11.4290
2023-04-19T03:38:07.632Z,11.4274
2023-04-19T03:39:09.082Z,11.4268
2023-04-19T03:40:10.503Z,11.4258
2023-04-19T03:41:11.949Z,11.4279
2023-04-19T03:42:13.420Z,11.4305
2023-04-19T03:43:14.839Z,11.4312
2023-04-19T03:44:16.432Z,11.4316
2023-04-19T03:45:18.194Z,11.4314
2023-04-19T03:46:19.649Z,11.4322
2023-04-19T03:47:21.253Z,11.4332
2023-04-19T03:48:22.837Z,11.4324
2023-04-19T03:49:24.294Z,11.4320
2023-04-19T03:50:25.737Z,11.4344
2023-04-19T03:51:27.158Z,11.4340
2023-04-19T03:52:28.567Z,11.4340
2023-04-19T03:53:29.970Z,11.4318
2023-04-19T03:54:31.375Z,11.4285
2023-04-19T03:55:32.841Z,11.4264
2023-04-19T03:56:34.438Z,11.4254
2023-04-19T03:57:35.863Z,11.4234
2023-04-19T03:58:37.381Z,11.4221
2023-04-19T03:59:38.800Z,11.4176
2023-04-19T04:00:40.258Z,11.4117
2023-04-19T04:01:41.895Z,11.4075
2023-04-19T04:02:43.837Z,11.4050
2023-04-19T04:03:45.634Z,11.4053
2023-04-19T04:04:47.486Z,11.4058
2023-04-19T04:05:48.929Z,11.4066
2023-04-19T04:06:50.406Z,11.4072
2023-04-19T04:07:51.808Z,11.4077
2023-04-19T04:08:53.199Z,11.4090
2023-04-19T04:09:54.618Z,11.4114
2023-04-19T04:10:56.026Z,11.4151
2023-04-19T04:11:57.410Z,11.4157
2023-04-19T04:12:58.899Z,11.4154
2023-04-19T04:14:00.392Z,11.4155
2023-04-19T04:15:01.863Z,11.4172
2023-04-19T04:16:03.290Z,11.4184
2023-04-19T04:17:04.716Z,11.4173
2023-04-19T04:18:08.566Z,11.4179
2023-04-19T04:19:07.910Z,11.4179
2023-04-19T04:20:09.328Z,11.4163
2023-04-19T04:21:10.717Z,11.4177
2023-04-19T04:22:12.163Z,11.4201
2023-04-19T04:23:13.566Z,11.4220
2023-04-19T04:24:15.144Z,11.4219
2023-04-19T04:25:16.686Z,11.4206
2023-04-19T04:26:18.086Z,11.4193
2023-04-19T04:27:19.584Z,11.4204
2023-04-19T04:28:21.274Z,11.4208
2023-04-19T04:29:22.735Z,11.4216
2023-04-19T04:30:26.554Z,11.4229
2023-04-19T04:31:24.258Z,11.4253
2023-04-19T04:32:25.750Z,11.4266
2023-04-19T04:33:27.232Z,11.4264
2023-04-19T04:34:28.724Z,11.4254
2023-04-19T04:35:30.199Z,11.4252
2023-04-19T04:36:31.645Z,11.4260
2023-04-19T04:37:33.084Z,11.4273
2023-04-19T04:38:34.576Z,11.4266
2023-04-19T04:39:35.978Z,11.4261
2023-04-19T04:40:37.383Z,11.4232
2023-04-19T04:41:38.828Z,11.4206
2023-04-19T04:42:40.295Z,11.4208
2023-04-19T04:43:41.944Z,11.4212
2023-04-19T04:44:43.381Z,11.4219
2023-04-19T04:45:44.862Z,11.4240
2023-04-19T04:46:46.331Z,11.4257
2023-04-19T04:47:47.806Z,11.4274
2023-04-19T04:48:49.279Z,11.4293
2023-04-19T04:49:50.696Z,11.4306
2023-04-19T04:50:52.113Z,11.4313
2023-04-19T04:51:53.560Z,11.4333
2023-04-19T04:52:54.972Z,11.4336
2023-04-19T04:53:56.516Z,11.4345
2023-04-19T04:54:57.978Z,11.4345
2023-04-19T04:55:59.672Z,11.4334
2023-04-19T04:57:01.189Z,11.4312
2023-04-19T04:58:02.614Z,11.4296
2023-04-19T04:59:04.000Z,11.4277
2023-04-19T05:00:05.435Z,11.4284
2023-04-19T05:01:06.888Z,11.4289
2023-04-19T05:02:08.469Z,11.4282
2023-04-19T05:03:10.060Z,11.4254
2023-04-19T05:04:11.587Z,11.4244
2023-04-19T05:05:13.086Z,11.4230
2023-04-19T05:06:14.501Z,11.4232
2023-04-19T05:07:16.173Z,11.4247
2023-04-19T05:08:17.594Z,11.4234
2023-04-19T05:09:18.998Z,11.4233
2023-04-19T05:10:20.457Z,11.4241
2023-04-19T05:11:21.885Z,11.4234
2023-04-19T05:12:23.367Z,11.4207
2023-04-19T05:13:24.829Z,11.4155
2023-04-19T05:14:26.280Z,11.4152
2023-04-19T05:15:27.709Z,11.4173
2023-04-19T05:16:29.310Z,11.4179
2023-04-19T05:17:30.825Z,11.4190
2023-04-19T05:18:32.213Z,11.4230
2023-04-19T05:19:33.654Z,11.4269
2023-04-19T05:20:35.089Z,11.4311
2023-04-19T05:21:36.577Z,11.4372
2023-04-19T05:22:37.978Z,11.4437
2023-04-19T05:23:39.453Z,11.4499
2023-04-19T05:24:42.375Z,11.4513
2023-04-19T05:25:41.485Z,11.4563
2023-04-19T05:26:42.883Z,11.4646
2023-04-19T05:27:44.308Z,11.4703
2023-04-19T05:28:45.754Z,11.4757
2023-04-19T05:29:47.175Z,11.4818
2023-04-19T05:30:48.660Z,11.4874
2023-04-19T05:31:50.101Z,11.4932
2023-04-19T05:32:51.554Z,11.4947
2023-04-19T05:33:53.047Z,11.4948
2023-04-19T05:34:54.529Z,11.4937
2023-04-19T05:35:55.947Z,11.4934
2023-04-19T05:36:57.397Z,11.4988
2023-04-19T05:37:58.821Z,11.5066
2023-04-19T05:39:00.220Z,11.5146
2023-04-19T05:40:01.667Z,11.5241
2023-04-19T05:41:03.048Z,11.5334
2023-04-19T05:42:04.462Z,11.5420
2023-04-19T05:43:05.870Z,11.5495
2023-04-19T05:44:07.281Z,11.5575
2023-04-19T05:45:08.679Z,11.5635
2023-04-19T05:46:10.165Z,11.5702
2023-04-19T05:47:11.596Z,11.5779
2023-04-19T05:48:12.987Z,11.5853
2023-04-19T05:49:14.450Z,11.5912
2023-04-19T05:50:15.845Z,11.5962
2023-04-19T05:51:17.284Z,11.5993
2023-04-19T05:52:18.686Z,11.6032
2023-04-19T05:53:20.097Z,11.6073
2023-04-19T05:54:21.505Z,11.6100
2023-04-19T05:55:23.009Z,11.6117
2023-04-19T05:56:24.440Z,11.6148
2023-04-19T05:57:25.825Z,11.6175
2023-04-19T05:58:27.254Z,11.6186
2023-04-19T05:59:28.683Z,11.6174
2023-04-19T06:00:30.083Z,11.6163
2023-04-19T06:01:31.514Z,11.6161
2023-04-19T06:02:33.133Z,11.6134
2023-04-19T06:03:34.953Z,11.6127
2023-04-19T06:04:37.375Z,11.6153
2023-04-19T06:05:39.378Z,11.6170
2023-04-19T06:06:40.801Z,11.6194
2023-04-19T06:07:47.246Z,11.6228
2023-04-19T06:08:44.282Z,11.6220
2023-04-19T06:09:45.693Z,11.6222
2023-04-19T06:10:54.510Z,11.6256
2023-04-19T06:11:51.201Z,11.6277
2023-04-19T06:12:50.518Z,11.6329
2023-04-19T06:13:51.970Z,11.6382
2023-04-19T06:14:53.399Z,11.6417
2023-04-19T06:15:54.919Z,11.6438
2023-04-19T06:16:56.304Z,11.6451
2023-04-19T06:17:59.776Z,11.6458
2023-04-19T06:18:58.881Z,11.6424
2023-04-19T06:20:00.365Z,11.6434
2023-04-19T06:21:01.775Z,11.6471
2023-04-19T06:22:03.194Z,11.6496
2023-04-19T06:23:04.614Z,11.6530
2023-04-19T06:24:06.076Z,11.6576
2023-04-19T06:25:07.521Z,11.6566
2023-04-19T06:26:09.047Z,11.6583
2023-04-19T06:27:10.479Z,11.6623
2023-04-19T06:28:11.882Z,11.6669
2023-04-19T06:29:13.277Z,11.6708
2023-04-19T06:30:14.706Z,11.6716
2023-04-19T06:31:16.099Z,11.6716
2023-04-19T06:32:17.580Z,11.6701
2023-04-19T06:33:18.995Z,11.6713
2023-04-19T06:34:20.412Z,11.6737
2023-04-19T06:35:21.811Z,11.6772
2023-04-19T06:36:23.239Z,11.6806
2023-04-19T06:37:24.691Z,11.6834
2023-04-19T06:38:26.130Z,11.6874
2023-04-19T06:39:27.548Z,11.6911
2023-04-19T06:40:29.036Z,11.6950
2023-04-19T06:41:30.530Z,11.6993
2023-04-19T06:42:31.982Z,11.7025
2023-04-19T06:43:33.398Z,11.7066
2023-04-19T06:44:34.943Z,11.7105
2023-04-19T06:45:36.456Z,11.7128
2023-04-19T06:46:37.894Z,11.7153
2023-04-19T06:47:39.366Z,11.7179
2023-04-19T06:48:40.803Z,11.7220
2023-04-19T06:49:42.369Z,11.7268
2023-04-19T06:50:43.835Z,11.7307
2023-04-19T06:51:45.278Z,11.7360
2023-04-19T06:52:46.751Z,11.7395
2023-04-19T06:53:48.202Z,11.7409
2023-04-19T06:54:49.816Z,11.7433
2023-04-19T06:55:51.261Z,11.7479
2023-04-19T06:56:52.727Z,11.7540
2023-04-19T06:57:54.229Z,11.7606
2023-04-19T06:58:55.680Z,11.7658
2023-04-19T06:59:57.154Z,11.7743
2023-04-19T07:00:58.674Z,11.7817
2023-04-19T07:02:00.213Z,11.7888
2023-04-19T07:03:01.869Z,11.7953
2023-04-19T07:04:03.874Z,11.8032
2023-04-19T07:05:06.093Z,11.8135
2023-04-19T07:06:07.519Z,11.8243
2023-04-19T07:07:08.942Z,11.8350
2023-04-19T07:08:10.394Z,11.8457
2023-04-19T07:09:11.836Z,11.8568
2023-04-19T07:10:13.318Z,11.8667
2023-04-19T07:11:14.756Z,11.8767
2023-04-19T07:12:16.266Z,11.8870
2023-04-19T07:13:17.718Z,11.8982
2023-04-19T07:14:19.334Z,11.9080
2023-04-19T07:15:20.797Z,11.9187
2023-04-19T07:16:22.464Z,11.9311
2023-04-19T07:17:24.010Z,11.9410
2023-04-19T07:18:25.565Z,11.9533
2023-04-19T07:19:27.059Z,11.9656
2023-04-19T07:20:28.720Z,11.9789
2023-04-19T07:21:30.248Z,11.9907
2023-04-19T07:22:31.774Z,12.0037
2023-04-19T07:23:33.243Z,12.0165
2023-04-19T07:24:34.663Z,12.0322
2023-04-19T07:25:36.125Z,12.0490
2023-04-19T07:26:37.630Z,12.0652
2023-04-19T07:27:39.043Z,12.0836
2023-04-19T07:28:40.509Z,12.1071
2023-04-19T07:29:41.989Z,12.1263
2023-04-19T07:30:43.450Z,12.1439
2023-04-19T07:31:44.947Z,12.1598
2023-04-19T07:32:46.555Z,12.1768
2023-04-19T07:33:48.094Z,12.1911
2023-04-19T07:34:49.561Z,12.2064
2023-04-19T07:35:51.221Z,12.2239
2023-04-19T07:36:52.714Z,12.2406
2023-04-19T07:37:57.264Z,12.2547
2023-04-19T07:38:58.901Z,12.2687
2023-04-19T07:40:01.238Z,12.2902
2023-04-19T07:41:02.751Z,12.3084
2023-04-19T07:42:04.259Z,12.3227
2023-04-19T07:43:05.796Z,12.3386
2023-04-19T07:44:07.356Z,12.3568
2023-04-19T07:45:08.809Z,12.3761
2023-04-19T07:46:10.299Z,12.3943
2023-04-19T07:47:11.758Z,12.4128
2023-04-19T07:48:13.251Z,12.4292
2023-04-19T07:49:14.713Z,12.4444
2023-04-19T07:50:16.297Z,12.4585
2023-04-19T07:51:17.831Z,12.4738
2023-04-19T07:52:19.272Z,12.4882
2023-04-19T07:53:20.721Z,12.5012
2023-04-19T07:54:22.137Z,12.5140
2023-04-19T07:55:23.648Z,12.5248
2023-04-19T07:56:25.091Z,12.5313
2023-04-19T07:57:26.618Z,12.5380
2023-04-19T07:58:28.090Z,12.5452
2023-04-19T07:59:29.602Z,12.5537
2023-04-19T08:00:31.023Z,12.5616
2023-04-19T08:01:32.840Z,12.5687
2023-04-19T08:02:34.787Z,12.5731
2023-04-19T08:03:36.481Z,12.5759
2023-04-19T08:04:38.548Z,12.5846
2023-04-19T08:05:40.417Z,12.5940
2023-04-19T08:06:41.975Z,12.6032
2023-04-19T08:07:43.478Z,12.6123
2023-04-19T08:08:44.930Z,12.6166
2023-04-19T08:09:46.476Z,12.6254
2023-04-19T08:10:47.932Z,12.6355
2023-04-19T08:11:49.447Z,12.6464
2023-04-19T08:14:04.558Z,12.6694
2023-04-19T08:15:02.661Z,12.6839
2023-04-19T08:17:22.050Z,12.7189
2023-04-19T08:18:01.119Z,12.7341
2023-04-19T08:19:02.608Z,12.7494
2023-04-19T08:20:04.100Z,12.7640
2023-04-19T08:21:05.538Z,12.7754
2023-04-19T08:22:07.014Z,12.7826
2023-04-19T08:23:20.363Z,12.7916
2023-04-19T08:24:10.483Z,12.8016
2023-04-19T08:25:11.900Z,12.8101
2023-04-19T08:26:13.378Z,12.8170
2023-04-19T08:27:14.881Z,12.8281
2023-04-19T08:28:16.354Z,12.8433
2023-04-19T08:29:17.945Z,12.8620
2023-04-19T08:30:19.595Z,12.8862
2023-04-19T08:31:21.056Z,12.9108
2023-04-19T08:32:22.552Z,12.9387
2023-04-19T08:33:24.040Z,12.9653
2023-04-19T08:34:25.469Z,12.9931
2023-04-19T08:35:26.908Z,13.0173
2023-04-19T08:36:37.104Z,13.0406
2023-04-19T08:37:30.451Z,13.0622
2023-04-19T08:38:31.975Z,13.0834
2023-04-19T08:39:34.262Z,13.1019
2023-04-19T08:40:33.545Z,13.1181
2023-04-19T08:41:34.999Z,13.1305
2023-04-19T08:42:37.249Z,13.1420
2023-04-19T08:43:40.486Z,13.1550
2023-04-19T08:44:53.795Z,13.1685
2023-04-19T08:45:43.007Z,13.1817
2023-04-19T08:46:44.421Z,13.1968
2023-04-19T08:47:58.665Z,13.2139
2023-04-19T08:48:47.942Z,13.2280
2023-04-19T08:49:56.300Z,13.2413
2023-04-19T08:51:04.446Z,13.2559
2023-04-19T08:51:53.494Z,13.2693
2023-04-19T08:52:59.053Z,13.2805
2023-04-19T08:53:56.975Z,13.2898
2023-04-19T08:54:58.471Z,13.2992
2023-04-19T08:56:10.023Z,13.3080
2023-04-19T08:57:01.958Z,13.3159
2023-04-19T08:58:04.197Z,13.3270
2023-04-19T08:59:19.253Z,13.3366
2023-04-19T09:00:06.619Z,13.3448
2023-04-19T09:01:08.301Z,13.3544
2023-04-19T09:02:08.733Z,13.3618
2023-04-19T09:03:10.646Z,13.3695
2023-04-19T09:05:13.378Z,13.3751
2023-04-19T09:06:15.293Z,13.3791
2023-04-19T09:07:16.842Z,13.3864
2023-04-19T09:08:18.297Z,13.3935
2023-04-19T09:10:21.576Z,13.4096
2023-04-19T09:11:23.085Z,13.4172
2023-04-19T09:12:24.537Z,13.4298
2023-04-19T09:13:26.032Z,13.4443
2023-04-19T09:14:27.467Z,13.4600
2023-04-19T09:15:28.940Z,13.4837
2023-04-19T09:16:30.414Z,13.5105
2023-04-19T09:17:31.888Z,13.5393
2023-04-19T09:18:35.933Z,13.5741
2023-04-19T09:19:35.372Z,13.6149
2023-04-19T09:20:36.840Z,13.6572
2023-04-19T09:21:38.270Z,13.7052
2023-04-19T09:22:39.684Z,13.7564
2023-04-19T09:23:41.148Z,13.8018
2023-04-19T09:26:06.280Z,13.8992
2023-04-19T09:26:46.233Z,13.9490
2023-04-19T09:27:47.669Z,13.9929
2023-04-19T09:28:49.081Z,14.0449
2023-04-19T09:29:50.496Z,14.0922
2023-04-19T09:31:00.668Z,14.1317
2023-04-19T09:31:54.092Z,14.1736
2023-04-19T09:32:55.568Z,14.2051
2023-04-19T09:33:56.983Z,14.2331
2023-04-19T09:34:58.454Z,14.2571
2023-04-19T09:35:59.902Z,14.2821
2023-04-19T09:37:12.177Z,14.3033
2023-04-19T09:38:06.721Z,14.3229
2023-04-19T09:39:05.934Z,14.3450
2023-04-19T09:40:07.381Z,14.3741
2023-04-19T09:41:08.800Z,14.4017
2023-04-19T09:42:10.260Z,14.4342
2023-04-19T09:44:50.198Z,14.5070
2023-04-19T09:46:17.344Z,14.5766
2023-04-19T09:47:18.716Z,14.6093
2023-04-19T09:48:20.159Z,14.6391
2023-04-19T09:49:33.547Z,14.6667
2023-04-19T09:50:27.288Z,14.6962
2023-04-19T09:51:23.753Z,14.7182
2023-04-19T09:52:25.150Z,14.7411
2023-04-19T09:53:26.528Z,14.7701
2023-04-19T09:54:27.941Z,14.8007
2023-04-19T09:55:31.721Z,14.8265
2023-04-19T09:56:31.350Z,14.8502
2023-04-19T09:57:32.766Z,14.8748
2023-04-19T09:59:35.919Z,14.9055
2023-04-19T10:00:47.996Z,14.9172
2023-04-19T10:01:39.368Z,14.9310
2023-04-19T10:02:40.949Z,14.9401
2023-04-19T10:03:42.619Z,14.9484
2023-04-19T10:05:46.317Z,14.9577
2023-04-19T10:07:07.403Z,14.9634
2023-04-19T10:07:49.874Z,14.9634
2023-04-19T10:08:51.621Z,14.9661
2023-04-19T10:09:55.023Z,14.9704
2023-04-19T10:10:55.236Z,14.9776
2023-04-19T10:12:03.764Z,14.9885
2023-04-19T10:13:15.891Z,14.9983
2023-04-19T10:14:00.900Z,15.0076
2023-04-19T10:15:02.313Z,15.0137
2023-04-19T10:16:15.502Z,15.0138
2023-04-19T10:17:05.794Z,15.0096
2023-04-19T10:18:07.413Z,15.0081
2023-04-19T10:19:10.054Z,15.0068
2023-04-19T10:20:09.224Z,15.0060
2023-04-19T10:21:10.608Z,15.0060
2023-04-19T10:22:11.990Z,15.0074
2023-04-19T10:23:13.487Z,15.0063
2023-04-19T10:24:14.893Z,15.0071
2023-04-19T10:25:16.356Z,15.0094
2023-04-19T10:26:17.765Z,15.0104
2023-04-19T10:27:19.216Z,15.0111
2023-04-19T10:28:20.647Z,15.0137
2023-04-19T10:29:22.074Z,15.0193
2023-04-19T10:30:23.517Z,15.0285
2023-04-19T10:31:24.912Z,15.0384
2023-04-19T10:32:26.380Z,15.0524
2023-04-19T10:33:27.898Z,15.0729
2023-04-19T10:34:29.350Z,15.0977
2023-04-19T10:35:30.753Z,15.1273
2023-04-19T10:36:32.189Z,15.1568
2023-04-19T10:37:33.793Z,15.1819
2023-04-19T10:38:35.329Z,15.2044
2023-04-19T10:39:36.794Z,15.2333
2023-04-19T10:40:38.178Z,15.2634
2023-04-19T10:41:39.654Z,15.2891
2023-04-19T10:42:41.037Z,15.3107
2023-04-19T10:43:42.477Z,15.3271
2023-04-19T10:44:43.866Z,15.3277
2023-04-19T10:45:45.313Z,15.3231
2023-04-19T10:46:46.707Z,15.3183
2023-04-19T10:47:48.195Z,15.3110
2023-04-19T10:48:49.701Z,15.3020
2023-04-19T10:49:51.181Z,15.2900
2023-04-19T10:50:52.634Z,15.2737
2023-04-19T10:51:54.059Z,15.2577
2023-04-19T10:52:55.484Z,15.2420
2023-04-19T10:53:56.940Z,15.2249
2023-04-19T10:54:58.374Z,15.2070
2023-04-19T10:55:59.779Z,15.1850
2023-04-19T10:57:01.201Z,15.1629
2023-04-19T10:58:02.602Z,15.1411
2023-04-19T10:59:04.036Z,15.1263
2023-04-19T11:00:05.471Z,15.1111
2023-04-19T11:01:06.889Z,15.1032
2023-04-19T11:02:08.395Z,15.0994
2023-04-19T11:03:10.086Z,15.0954
2023-04-19T11:04:11.902Z,15.0914
2023-04-19T11:05:13.603Z,15.0887
2023-04-19T11:06:15.014Z,15.0856
2023-04-19T11:07:16.386Z,15.0812
2023-04-19T11:08:17.799Z,15.0778
2023-04-19T11:09:19.260Z,15.0761
2023-04-19T11:10:20.719Z,15.0701
2023-04-19T11:11:22.143Z,15.0637
2023-04-19T11:12:23.597Z,15.0577
2023-04-19T11:13:25.039Z,15.0512
2023-04-19T11:14:26.493Z,15.0449
2023-04-19T11:15:27.969Z,15.0410
2023-04-19T11:16:42.434Z,15.0378
2023-04-19T11:17:31.598Z,15.0338
2023-04-19T11:18:33.301Z,15.0341
2023-04-19T11:19:34.683Z,15.0377
2023-04-19T11:20:36.157Z,15.0431
2023-04-19T11:21:37.554Z,15.0495
2023-04-19T11:22:39.052Z,15.0601
2023-04-19T11:23:40.455Z,15.0686
2023-04-19T11:24:41.873Z,15.0788
2023-04-19T11:25:43.296Z,15.0947
2023-04-19T11:26:44.752Z,15.1153
2023-04-19T11:27:46.230Z,15.1440
2023-04-19T11:28:47.680Z,15.1760
2023-04-19T11:29:49.135Z,15.2122
2023-04-19T11:30:50.622Z,15.2501
2023-04-19T11:31:52.137Z,15.2936
2023-04-19T11:32:53.666Z,15.3422
2023-04-19T11:33:55.439Z,15.3840
2023-04-19T11:34:57.069Z,15.4218
2023-04-19T11:35:58.509Z,15.4571
2023-04-19T11:36:59.938Z,15.4877
2023-04-19T11:38:01.428Z,15.5136
2023-04-19T11:39:02.898Z,15.5355
2023-04-19T11:40:05.104Z,15.5530
2023-04-19T11:41:06.908Z,15.5665
2023-04-19T11:42:08.340Z,15.5740
2023-04-19T11:43:09.710Z,15.5727
2023-04-19T11:44:11.159Z,15.5628
2023-04-19T11:45:25.897Z,15.5471
2023-04-19T11:46:14.737Z,15.5222
2023-04-19T11:47:16.251Z,15.4942
2023-04-19T11:48:17.888Z,15.4583
2023-04-19T11:49:19.348Z,15.4270
2023-04-19T11:50:20.831Z,15.4135
2023-04-19T11:51:22.460Z,15.4112
2023-04-19T11:52:23.913Z,15.4142
2023-04-19T11:53:25.371Z,15.4191
2023-04-19T11:54:26.854Z,15.4260
2023-04-19T11:55:28.272Z,15.4346
2023-04-19T11:56:29.732Z,15.4427
2023-04-19T11:57:31.183Z,15.4499
2023-04-19T11:58:32.617Z,15.4539
2023-04-19T11:59:34.064Z,15.4590
2023-04-19T12:00:35.524Z,15.4673
2023-04-19T12:01:36.918Z,15.4775
2023-04-19T12:02:38.610Z,15.4869
2023-04-19T12:03:40.335Z,15.4948
2023-04-19T12:04:42.205Z,15.5031
2023-04-19T12:05:44.146Z,15.5117
2023-04-19T12:06:45.666Z,15.5200
2023-04-19T12:07:47.124Z,15.5284
2023-04-19T12:08:48.575Z,15.5373
2023-04-19T12:09:50.032Z,15.5474
2023-04-19T12:10:51.519Z,15.5597
2023-04-19T12:11:52.940Z,15.5729
2023-04-19T12:12:54.383Z,15.5885
2023-04-19T12:13:55.813Z,15.6034
2023-04-19T12:14:57.289Z,15.6095
2023-04-19T12:15:58.758Z,15.6120
2023-04-19T12:17:00.322Z,15.6109
2023-04-19T12:18:01.876Z,15.6015
2023-04-19T12:19:03.476Z,15.5868
2023-04-19T12:20:05.027Z,15.5724
2023-04-19T12:21:06.465Z,15.5675
2023-04-19T12:22:07.921Z,15.5639
2023-04-19T12:23:09.401Z,15.5625
2023-04-19T12:24:10.918Z,15.5545
2023-04-19T12:25:12.404Z,15.5386
2023-04-19T12:26:13.839Z,15.5161
2023-04-19T12:27:15.359Z,15.4905
2023-04-19T12:28:16.836Z,15.4580
2023-04-19T12:29:18.385Z,15.4208
2023-04-19T12:30:19.836Z,15.3883
2023-04-19T12:31:21.250Z,15.3640
2023-04-19T12:32:22.733Z,15.3430
2023-04-19T12:33:24.240Z,15.3208